createdAt,value
2018-06-01T00:00:10.500Z,11.90
2018-06-01T00:01:10.732Z,11.10
2018-06-01T00:02:10.967Z,10.80
2018-06-01T00:03:11.199Z,10.00
2018-06-01T00:04:11.442Z,12.20
2018-06-01T00:05:11.664Z,9.80
2018-06-01T00:06:11.894Z,11.30
2018-06-01T00:07:12.123Z,8.90
2018-06-01T00:08:12.354Z,10.60
2018-06-01T00:09:12.584Z,10.70
2018-06-01T00:10:12.816Z,9.90
2018-06-01T00:11:13.050Z,9.70
2018-06-01T00:12:13.276Z,9.10
2018-06-01T00:13:13.508Z,10.20
2018-06-01T00:14:13.740Z,12.20
2018-06-01T00:15:13.976Z,9.90
2018-06-01T00:16:14.211Z,9.80
2018-06-01T00:17:14.444Z,13.80
2018-06-01T00:18:14.677Z,11.40
2018-06-01T00:19:14.910Z,8.70
2018-06-01T00:20:15.151Z,8.10
2018-06-01T00:21:15.374Z,9.30
2018-06-01T00:22:15.607Z,11.20
2018-06-01T00:23:15.835Z,10.20
2018-06-01T00:24:16.067Z,11.00
2018-06-01T00:25:16.302Z,8.20
2018-06-01T00:26:16.529Z,12.10
2018-06-01T00:27:16.758Z,10.30
2018-06-01T00:28:16.988Z,8.40
2018-06-01T00:29:17.223Z,9.00
2018-06-01T00:30:17.452Z,7.80
2018-06-01T00:31:17.685Z,8.90
2018-06-01T00:32:17.914Z,12.20
2018-06-01T00:33:18.153Z,9.20
2018-06-01T00:34:18.380Z,12.10
2018-06-01T00:35:18.615Z,9.00
2018-06-01T00:36:18.845Z,13.50
2018-06-01T00:37:19.078Z,8.60
2018-06-01T00:38:19.307Z,10.20
2018-06-01T00:39:19.541Z,8.80
2018-06-01T00:40:19.772Z,9.80
2018-06-01T00:41:20.005Z,9.40
2018-06-01T00:42:20.231Z,9.50
2018-06-01T00:43:20.463Z,9.40
2018-06-01T00:44:20.697Z,9.20
2018-06-01T00:45:20.926Z,9.40
2018-06-01T00:46:21.157Z,10.60
2018-06-01T00:47:21.393Z,11.90
2018-06-01T00:48:21.634Z,7.20
2018-06-01T00:49:21.855Z,8.40
2018-06-01T00:50:22.087Z,13.00
2018-06-01T00:51:22.318Z,13.30
2018-06-01T00:52:22.540Z,9.60
2018-06-01T00:53:22.771Z,11.20
2018-06-01T00:54:23.007Z,10.60
2018-06-01T00:55:23.236Z,10.00
2018-06-01T00:56:23.465Z,10.60
2018-06-01T00:57:23.699Z,9.10
2018-06-01T00:58:23.928Z,9.80
2018-06-01T00:59:24.167Z,9.70
2018-06-01T01:00:24.397Z,11.10
2018-06-01T01:01:24.640Z,10.00
2018-06-01T01:02:24.855Z,7.30
2018-06-01T01:03:25.092Z,8.30
2018-06-01T01:04:25.318Z,12.70
2018-06-01T01:05:25.553Z,8.80
2018-06-01T01:06:25.787Z,9.20
2018-06-01T01:07:26.019Z,11.00
2018-06-01T01:08:26.247Z,9.20
2018-06-01T01:09:26.485Z,11.60
2018-06-01T01:10:26.720Z,12.40
2018-06-01T01:11:26.947Z,10.90
2018-06-01T01:12:27.172Z,9.60
2018-06-01T01:13:27.400Z,10.10
2018-06-01T01:14:27.655Z,10.80
2018-06-01T01:15:27.866Z,7.60
2018-06-01T01:16:28.097Z,8.30
2018-06-01T01:17:28.331Z,11.00
2018-06-01T01:18:28.569Z,9.70
2018-06-01T01:19:28.796Z,8.40
2018-06-01T01:20:29.027Z,12.00
2018-06-01T01:21:29.264Z,12.80
2018-06-01T01:22:29.490Z,11.90
2018-06-01T01:23:29.736Z,11.30
2018-06-01T01:24:29.956Z,12.10
2018-06-01T01:25:30.190Z,10.10
2018-06-01T01:26:30.416Z,13.20
2018-06-01T01:27:30.649Z,8.40
2018-06-01T01:28:30.886Z,8.40
2018-06-01T01:29:31.117Z,8.80
2018-06-01T01:30:31.348Z,12.30
2018-06-01T01:31:31.583Z,8.60
2018-06-01T01:32:31.815Z,9.80
2018-06-01T01:33:32.046Z,7.50
2018-06-01T01:34:32.279Z,9.30
2018-06-01T01:35:32.504Z,8.30
2018-06-01T01:36:32.740Z,12.70
2018-06-01T01:37:32.970Z,7.50
2018-06-01T01:38:33.191Z,10.20
2018-06-01T01:39:33.422Z,8.00
2018-06-01T01:40:33.655Z,9.40
2018-06-01T01:41:33.887Z,9.90
2018-06-01T01:42:34.143Z,13.40
2018-06-01T01:43:34.360Z,10.20
2018-06-01T01:44:34.614Z,7.80
2018-06-01T01:45:34.808Z,10.30
2018-06-01T01:46:35.068Z,7.20
2018-06-01T01:47:35.262Z,13.40
2018-06-01T01:48:35.496Z,9.90
2018-06-01T01:49:35.722Z,9.10
2018-06-01T01:50:35.961Z,10.10
2018-06-01T01:51:36.194Z,10.20
2018-06-01T01:52:36.421Z,10.50
2018-06-01T01:53:36.659Z,7.10
2018-06-01T01:54:36.890Z,13.20
2018-06-01T01:55:37.124Z,10.80
2018-06-01T01:56:37.357Z,10.80
2018-06-01T01:57:37.598Z,8.30
2018-06-01T01:58:37.816Z,8.40
2018-06-01T01:59:38.050Z,9.30
2018-06-01T02:00:38.285Z,11.10
2018-06-01T02:01:38.516Z,8.70
2018-06-01T02:02:38.755Z,9.20
2018-06-01T02:03:38.987Z,7.30
2018-06-01T02:04:39.195Z,8.30
2018-06-01T02:05:39.426Z,8.40
2018-06-01T02:06:39.658Z,10.00
2018-06-01T02:07:39.891Z,8.40
2018-06-01T02:08:40.128Z,8.40
2018-06-01T02:09:40.353Z,12.90
2018-06-01T02:10:40.584Z,7.40
2018-06-01T02:11:40.818Z,8.50
2018-06-01T02:12:41.051Z,12.00
2018-06-01T02:13:41.283Z,9.80
2018-06-01T02:14:41.506Z,7.00
2018-06-01T02:15:41.744Z,10.00
2018-06-01T02:16:41.972Z,9.50
2018-06-01T02:17:42.200Z,7.90
2018-06-01T02:18:42.439Z,10.80
2018-06-01T02:19:42.670Z,9.00
2018-06-01T02:20:42.903Z,6.50
2018-06-01T02:21:43.139Z,9.50
2018-06-01T02:22:43.361Z,9.20
2018-06-01T02:23:43.589Z,13.90
2018-06-01T02:24:43.821Z,9.90
2018-06-01T02:25:44.060Z,8.60
2018-06-01T02:26:44.290Z,7.30
2018-06-01T02:27:44.519Z,8.50
2018-06-01T02:28:44.751Z,10.50
2018-06-01T02:29:44.977Z,6.00
2018-06-01T02:30:45.216Z,11.00
2018-06-01T02:31:45.450Z,9.10
2018-06-01T02:32:45.684Z,8.80
2018-06-01T02:33:45.916Z,11.80
2018-06-01T02:34:46.147Z,7.40
2018-06-01T02:35:46.377Z,10.60
2018-06-01T02:36:46.609Z,8.20
2018-06-01T02:37:46.840Z,8.30
2018-06-01T02:38:47.076Z,8.20
2018-06-01T02:39:47.308Z,13.00
2018-06-01T02:40:47.551Z,12.50
2018-06-01T02:41:47.773Z,10.90
2018-06-01T02:42:48.001Z,9.20
2018-06-01T02:43:48.230Z,10.90
2018-06-01T02:44:48.462Z,13.30
2018-06-01T02:45:48.689Z,12.00
2018-06-01T02:46:48.922Z,11.00
2018-06-01T02:47:49.158Z,8.10
2018-06-01T02:48:49.401Z,9.10
2018-06-01T02:49:49.619Z,10.30
2018-06-01T02:50:49.850Z,9.70
2018-06-01T02:51:50.086Z,8.50
2018-06-01T02:52:50.319Z,15.20
2018-06-01T02:53:50.546Z,8.20
2018-06-01T02:54:50.778Z,8.70
2018-06-01T02:55:51.016Z,12.10
2018-06-01T02:56:51.244Z,8.90
2018-06-01T02:57:51.474Z,12.60
2018-06-01T02:58:51.707Z,7.90
2018-06-01T02:59:51.939Z,8.10
2018-06-01T03:00:52.172Z,8.50
2018-06-01T03:01:52.404Z,10.20
2018-06-01T03:02:52.634Z,13.40
2018-06-01T03:03:52.869Z,10.00
2018-06-01T03:04:53.100Z,9.00
2018-06-01T03:05:53.331Z,10.60
2018-06-01T03:06:53.564Z,11.20
2018-06-01T03:07:53.793Z,11.00
2018-06-01T03:08:54.024Z,7.20
2018-06-01T03:09:54.273Z,9.90
2018-06-01T03:10:54.494Z,7.20
2018-06-01T03:11:54.724Z,7.70
2018-06-01T03:12:54.956Z,9.40
2018-06-01T03:13:55.189Z,9.30
2018-06-01T03:14:55.428Z,10.80
2018-06-01T03:15:55.654Z,9.00
2018-06-01T03:16:55.885Z,10.70
2018-06-01T03:17:56.136Z,9.60
2018-06-01T03:18:56.349Z,9.40
2018-06-01T03:19:56.573Z,8.80
2018-06-01T03:20:56.806Z,12.00
2018-06-01T03:21:57.039Z,7.80
2018-06-01T03:22:57.273Z,8.20
2018-06-01T03:23:57.504Z,7.40
2018-06-01T03:24:57.734Z,8.90
2018-06-01T03:25:57.962Z,10.20
2018-06-01T03:26:58.194Z,7.30
2018-06-01T03:27:58.435Z,11.40
2018-06-01T03:28:58.662Z,8.90
2018-06-01T03:29:58.890Z,13.90
2018-06-01T03:30:59.130Z,10.40
2018-06-01T03:31:59.356Z,11.70
2018-06-01T03:32:59.592Z,11.60
2018-06-01T03:33:59.823Z,10.40
2018-06-01T03:35:00.060Z,11.00
2018-06-01T03:36:00.296Z,11.30
2018-06-01T03:37:00.516Z,8.90
2018-06-01T03:38:00.773Z,8.70
2018-06-01T03:39:00.982Z,7.90
2018-06-01T03:40:01.211Z,10.50
2018-06-01T03:41:01.451Z,21.00
2018-06-01T03:42:01.684Z,12.70
2018-06-01T03:43:01.918Z,8.50
2018-06-01T03:44:02.153Z,9.40
2018-06-01T03:45:02.383Z,9.50
2018-06-01T03:46:02.616Z,13.20
2018-06-01T03:47:02.849Z,15.80
2018-06-01T03:48:03.083Z,11.30
2018-06-01T03:49:03.317Z,11.20
2018-06-01T03:50:03.553Z,11.00
2018-06-01T03:51:03.776Z,9.90
2018-06-01T03:52:04.003Z,10.50
2018-06-01T03:53:04.245Z,10.00
2018-06-01T03:54:04.469Z,8.70
2018-06-01T03:55:04.698Z,8.10
2018-06-01T03:56:04.929Z,13.10
2018-06-01T03:57:05.162Z,9.40
2018-06-01T03:58:05.395Z,9.80
2018-06-01T03:59:05.627Z,11.80
2018-06-01T04:00:05.861Z,14.80
2018-06-01T04:01:06.097Z,10.30
2018-06-01T04:02:06.327Z,8.40
2018-06-01T04:03:06.560Z,10.10
2018-06-01T04:04:06.794Z,9.00
2018-06-01T04:05:07.027Z,11.20
2018-06-01T04:06:07.261Z,8.70
2018-06-01T04:07:07.495Z,10.30
2018-06-01T04:08:07.727Z,9.50
2018-06-01T04:09:07.954Z,14.20
2018-06-01T04:10:08.187Z,9.70
2018-06-01T04:11:08.418Z,6.60
2018-06-01T04:12:08.652Z,8.40
2018-06-01T04:13:08.888Z,6.80
2018-06-01T04:14:09.122Z,13.40
2018-06-01T04:15:09.361Z,9.60
2018-06-01T04:16:09.594Z,8.00
2018-06-01T04:17:09.822Z,9.90
2018-06-01T04:18:10.055Z,9.00
2018-06-01T04:19:10.294Z,7.00
2018-06-01T04:20:10.525Z,9.70
2018-06-01T04:21:10.765Z,6.70
2018-06-01T04:22:10.996Z,5.90
2018-06-01T04:23:11.229Z,6.60
2018-06-01T04:24:11.462Z,5.70
2018-06-01T04:25:11.703Z,9.50
2018-06-01T04:26:11.934Z,7.60
2018-06-01T04:27:12.170Z,4.90
2018-06-01T04:28:12.409Z,5.00
2018-06-01T04:29:12.647Z,8.90
2018-06-01T04:30:12.874Z,5.00
2018-06-01T04:31:13.108Z,5.70
2018-06-01T04:32:13.345Z,5.60
2018-06-01T04:33:13.586Z,5.70
2018-06-01T04:34:13.811Z,10.30
2018-06-01T04:35:14.048Z,9.20
2018-06-01T04:36:14.281Z,6.10
2018-06-01T04:37:14.509Z,8.50
2018-06-01T04:38:14.753Z,7.00
2018-06-01T04:39:14.997Z,5.90
2018-06-01T04:40:15.224Z,7.40
2018-06-01T04:41:15.461Z,9.10
2018-06-01T04:42:15.694Z,6.50
2018-06-01T04:43:15.923Z,5.90
2018-06-01T04:44:16.173Z,7.70
2018-06-01T04:45:16.388Z,5.90
2018-06-01T04:46:16.612Z,5.60
2018-06-01T04:47:16.848Z,5.20
2018-06-01T04:48:17.079Z,8.20
2018-06-01T04:49:17.370Z,4.50
2018-06-01T04:50:17.554Z,6.80
2018-06-01T04:51:17.780Z,4.80
2018-06-01T04:52:18.016Z,3.60
2018-06-01T04:53:18.252Z,7.10
2018-06-01T04:54:18.485Z,6.30
2018-06-01T04:55:18.713Z,8.80
2018-06-01T04:56:18.943Z,6.30
2018-06-01T04:57:19.192Z,4.20
2018-06-01T04:58:19.425Z,4.00
2018-06-01T04:59:19.658Z,5.00
2018-06-01T05:00:19.898Z,4.30
2018-06-01T05:01:20.131Z,6.50
2018-06-01T05:02:22.183Z,4.90
2018-06-01T05:03:20.543Z,6.00
2018-06-01T05:04:20.768Z,6.80
2018-06-01T05:05:21.015Z,4.00
2018-06-01T05:06:21.252Z,6.10
2018-06-01T05:07:21.489Z,5.60
2018-06-01T05:08:21.725Z,3.50
2018-06-01T05:09:21.961Z,4.00
2018-06-01T05:10:22.200Z,4.80
2018-06-01T05:11:22.435Z,4.70
2018-06-01T05:12:22.673Z,4.40
2018-06-01T05:13:22.908Z,10.50
2018-06-01T05:14:23.146Z,4.30
2018-06-01T05:15:23.386Z,6.60
2018-06-01T05:16:23.620Z,3.30
2018-06-01T05:17:23.854Z,6.10
2018-06-01T05:18:24.096Z,6.40
2018-06-01T05:19:24.322Z,4.30
2018-06-01T05:20:24.554Z,4.70
2018-06-01T05:21:24.785Z,5.20
2018-06-01T05:22:25.025Z,6.40
2018-06-01T05:23:25.255Z,6.60
2018-06-01T05:24:25.492Z,4.50
2018-06-01T05:25:25.723Z,5.50
2018-06-01T05:26:25.961Z,3.50
2018-06-01T05:27:26.195Z,6.40
2018-06-01T05:28:26.430Z,4.20
2018-06-01T05:29:26.671Z,5.10
2018-06-01T05:30:26.901Z,5.00
2018-06-01T05:31:27.143Z,5.10
2018-06-01T05:32:27.371Z,4.50
2018-06-01T05:33:27.609Z,6.50
2018-06-01T05:34:27.845Z,7.20
2018-06-01T05:35:28.080Z,3.50
2018-06-01T05:36:28.324Z,7.10
2018-06-01T05:37:28.549Z,5.30
2018-06-01T05:38:28.783Z,5.50
2018-06-01T05:39:29.020Z,3.90
2018-06-01T05:40:29.271Z,2.90
2018-06-01T05:41:29.492Z,4.90
2018-06-01T05:42:29.730Z,3.90
2018-06-01T05:43:29.965Z,4.10
2018-06-01T05:44:30.205Z,5.50
2018-06-01T05:45:30.433Z,2.80
2018-06-01T05:46:30.670Z,2.00
2018-06-01T05:47:30.904Z,3.70
2018-06-01T05:48:31.141Z,1.70
2018-06-01T05:49:31.375Z,4.60
2018-06-01T05:50:31.612Z,3.00
2018-06-01T05:51:31.850Z,2.40
2018-06-01T05:52:32.088Z,1.70
2018-06-01T05:53:32.323Z,4.20
2018-06-01T05:54:32.561Z,4.40
2018-06-01T05:55:32.795Z,2.10
2018-06-01T05:56:33.023Z,4.60
2018-06-01T05:57:33.270Z,2.80
2018-06-01T05:58:33.490Z,3.20
2018-06-01T05:59:33.720Z,4.10
2018-06-01T06:00:33.957Z,4.30
2018-06-01T06:01:34.185Z,4.90
2018-06-01T06:02:34.429Z,5.30
2018-06-01T06:03:34.655Z,3.40
2018-06-01T06:04:34.930Z,4.50
2018-06-01T06:05:35.118Z,3.10
2018-06-01T06:06:35.356Z,4.10
2018-06-01T06:07:35.590Z,3.30
2018-06-01T06:08:35.819Z,4.40
2018-06-01T06:09:36.064Z,4.20
2018-06-01T06:10:36.321Z,5.20
2018-06-01T06:11:36.558Z,3.90
2018-06-01T06:12:36.791Z,3.60
2018-06-01T06:13:37.060Z,2.50
2018-06-01T06:14:37.298Z,2.70
2018-06-01T06:15:37.508Z,2.50
2018-06-01T06:16:37.788Z,3.80
2018-06-01T06:17:37.975Z,4.10
2018-06-01T06:18:38.213Z,2.90
2018-06-01T06:19:38.452Z,4.80
2018-06-01T06:20:38.679Z,4.00
2018-06-01T06:21:38.926Z,2.40
2018-06-01T06:22:39.166Z,5.80
2018-06-01T06:23:39.400Z,3.60
2018-06-01T06:24:39.635Z,2.90
2018-06-01T06:25:39.878Z,3.90
2018-06-01T06:26:40.106Z,5.70
2018-06-01T06:27:40.349Z,2.90
2018-06-01T06:28:40.582Z,2.60
2018-06-01T06:29:40.818Z,2.10
2018-06-01T06:30:41.065Z,4.30
2018-06-01T06:31:41.302Z,2.90
2018-06-01T06:32:41.538Z,1.40
2018-06-01T06:33:41.771Z,4.10
2018-06-01T06:34:42.027Z,1.40
2018-06-01T06:35:42.266Z,3.00
2018-06-01T06:36:42.494Z,1.50
2018-06-01T06:37:42.773Z,1.90
2018-06-01T06:38:42.969Z,3.50
2018-06-01T06:39:43.199Z,1.90
2018-06-01T06:40:43.432Z,4.00
2018-06-01T06:41:43.670Z,2.50
2018-06-01T06:42:43.905Z,2.80
2018-06-01T06:43:44.139Z,1.30
2018-06-01T06:44:44.371Z,1.90
2018-06-01T06:45:44.614Z,1.80
2018-06-01T06:46:44.854Z,4.10
2018-06-01T06:47:45.086Z,3.00
2018-06-01T06:48:45.322Z,1.20
2018-06-01T06:49:45.557Z,1.50
2018-06-01T06:50:45.791Z,1.10
2018-06-01T06:51:46.033Z,4.40
2018-06-01T06:52:46.262Z,3.20
2018-06-01T06:53:46.492Z,3.50
2018-06-01T06:54:46.735Z,1.40
2018-06-01T06:55:46.969Z,1.20
2018-06-01T06:56:47.206Z,1.20
2018-06-01T06:57:47.433Z,1.30
2018-06-01T06:58:47.675Z,1.60
2018-06-01T06:59:47.916Z,2.00
2018-06-01T07:00:48.157Z,1.50
2018-06-01T07:01:48.392Z,0.90
2018-06-01T07:02:48.691Z,3.30
2018-06-01T07:03:48.855Z,1.30
2018-06-01T07:04:49.092Z,1.20
2018-06-01T07:05:49.327Z,1.70
2018-06-01T07:06:49.555Z,1.40
2018-06-01T07:07:49.791Z,1.60
2018-06-01T07:08:50.026Z,2.20
2018-06-01T07:09:50.259Z,1.80
2018-06-01T07:10:50.486Z,2.00
2018-06-01T07:11:50.726Z,1.60
2018-06-01T07:12:50.958Z,1.10
2018-06-01T07:13:51.189Z,2.30
2018-06-01T07:14:51.434Z,1.40
2018-06-01T07:15:51.669Z,1.40
2018-06-01T07:16:51.906Z,2.50
2018-06-01T07:17:52.140Z,5.50
2018-06-01T07:18:52.376Z,2.10
2018-06-01T07:19:52.618Z,2.80
2018-06-01T07:20:52.853Z,1.90
2018-06-01T07:21:53.089Z,2.10
2018-06-01T07:22:53.325Z,1.70
2018-06-01T07:23:53.556Z,3.20
2018-06-01T07:24:53.792Z,1.40
2018-06-01T07:25:54.036Z,1.50
2018-06-01T07:26:54.267Z,1.60
2018-06-01T07:27:54.497Z,4.20
2018-06-01T07:28:54.734Z,7.70
2018-06-01T07:29:54.993Z,2.80
2018-06-01T07:30:55.203Z,1.50
2018-06-01T07:31:55.438Z,7.90
2018-06-01T07:32:55.666Z,3.00
2018-06-01T07:33:55.896Z,4.40
2018-06-01T07:34:56.131Z,3.30
2018-06-01T07:35:56.368Z,1.60
2018-06-01T07:36:56.601Z,1.90
2018-06-01T07:37:56.835Z,3.00
2018-06-01T07:38:57.078Z,2.00
2018-06-01T07:39:57.336Z,2.70
2018-06-01T07:40:57.549Z,1.80
2018-06-01T07:41:57.781Z,3.00
2018-06-01T07:42:58.023Z,1.40
2018-06-01T07:43:58.255Z,2.80
2018-06-01T07:44:58.494Z,3.10
2018-06-01T07:45:58.720Z,4.80
2018-06-01T07:46:58.995Z,2.00
2018-06-01T07:47:59.206Z,2.40
2018-06-01T07:48:59.438Z,3.40
2018-06-01T07:49:59.675Z,2.40
2018-06-01T07:50:59.910Z,2.30
2018-06-01T07:52:00.145Z,1.50
2018-06-01T07:53:00.380Z,2.60
2018-06-01T07:54:00.609Z,2.20
2018-06-01T07:55:00.845Z,1.60
2018-06-01T07:56:01.084Z,1.50
2018-06-01T07:57:01.314Z,4.70
2018-06-01T07:58:01.547Z,2.20
2018-06-01T07:59:01.784Z,2.20
2018-06-01T08:00:02.018Z,3.20
2018-06-01T08:01:02.252Z,1.80
2018-06-01T08:02:02.488Z,2.10
2018-06-01T08:03:02.724Z,2.60
2018-06-01T08:04:02.966Z,2.10
2018-06-01T08:05:03.200Z,2.50
2018-06-01T08:06:03.431Z,3.00
2018-06-01T08:07:03.663Z,2.30
2018-06-01T08:08:03.895Z,1.60
2018-06-01T08:09:04.138Z,2.00
2018-06-01T08:10:04.366Z,2.60
2018-06-01T08:11:04.614Z,1.70
2018-06-01T08:12:04.830Z,1.50
2018-06-01T08:13:05.070Z,1.60
2018-06-01T08:14:05.304Z,1.70
2018-06-01T08:15:05.552Z,3.50
2018-06-01T08:16:05.764Z,3.60
2018-06-01T08:17:06.000Z,2.10
2018-06-01T08:18:06.234Z,1.70
2018-06-01T08:19:06.468Z,1.50
2018-06-01T08:20:06.705Z,1.70
2018-06-01T08:21:06.936Z,1.50
2018-06-01T08:22:07.171Z,4.70
2018-06-01T08:23:07.406Z,2.60
2018-06-01T08:24:07.653Z,1.40
2018-06-01T08:25:07.877Z,1.60
2018-06-01T08:26:08.113Z,2.20
2018-06-01T08:27:08.351Z,2.20
2018-06-01T08:28:08.617Z,1.40
2018-06-01T08:29:08.814Z,2.50
2018-06-01T08:30:09.051Z,1.50
2018-06-01T08:31:09.288Z,1.50
2018-06-01T08:32:09.521Z,2.80
2018-06-01T08:33:09.755Z,2.00
2018-06-01T08:34:09.989Z,1.70
2018-06-01T08:35:10.223Z,1.50
2018-06-01T08:36:10.459Z,3.60
2018-06-01T08:37:10.693Z,1.40
2018-06-01T08:38:10.924Z,2.20
2018-06-01T08:39:11.161Z,1.70
2018-06-01T08:40:11.394Z,3.00
2018-06-01T08:41:11.629Z,1.50
2018-06-01T08:42:11.868Z,3.10
2018-06-01T08:43:12.103Z,3.90
2018-06-01T08:44:12.341Z,1.50
2018-06-01T08:45:12.577Z,2.10
2018-06-01T08:46:12.813Z,1.80
2018-06-01T08:47:13.050Z,1.80
2018-06-01T08:48:13.289Z,1.60
2018-06-01T08:49:13.520Z,2.90
2018-06-01T08:50:13.755Z,5.30
2018-06-01T08:51:13.994Z,1.60
2018-06-01T08:52:14.232Z,3.40
2018-06-01T08:53:14.469Z,2.00
2018-06-01T08:54:14.705Z,3.10
2018-06-01T08:55:14.942Z,2.60
2018-06-01T08:56:15.178Z,1.60
2018-06-01T08:57:15.415Z,1.60
2018-06-01T08:58:15.653Z,1.80
2018-06-01T08:59:15.947Z,2.30
2018-06-01T09:00:16.120Z,1.30
2018-06-01T09:01:16.361Z,1.90
2018-06-01T09:02:16.610Z,2.80
2018-06-01T09:03:16.829Z,1.40
2018-06-01T09:04:17.067Z,3.00
2018-06-01T09:05:17.302Z,2.40
2018-06-01T09:06:17.542Z,1.50
2018-06-01T09:07:17.776Z,1.90
2018-06-01T09:08:18.013Z,2.30
2018-06-01T09:09:18.248Z,1.70
2018-06-01T09:10:18.557Z,1.90
2018-06-01T09:11:18.718Z,2.00
2018-06-01T09:12:18.948Z,1.40
2018-06-01T09:13:19.181Z,1.40
2018-06-01T09:14:19.416Z,1.70
2018-06-01T09:15:19.651Z,3.10
2018-06-01T09:16:19.890Z,3.10
2018-06-01T09:17:20.129Z,1.40
2018-06-01T09:18:20.363Z,1.60
2018-06-01T09:19:20.599Z,1.70
2018-06-01T09:20:20.828Z,1.30
2018-06-01T09:21:21.058Z,2.40
2018-06-01T09:22:21.290Z,1.50
2018-06-01T09:23:21.534Z,1.90
2018-06-01T09:24:21.766Z,3.50
2018-06-01T09:25:21.998Z,1.50
2018-06-01T09:26:22.237Z,2.30
2018-06-01T09:27:22.471Z,2.20
2018-06-01T09:28:22.730Z,3.20
2018-06-01T09:29:22.948Z,1.50
2018-06-01T09:30:23.181Z,2.20
2018-06-01T09:31:23.418Z,1.20
2018-06-01T09:32:23.658Z,5.80
2018-06-01T09:33:23.893Z,2.50
2018-06-01T09:34:24.162Z,1.50
2018-06-01T09:35:24.374Z,1.40
2018-06-01T09:36:24.601Z,2.10
2018-06-01T09:37:24.835Z,1.80
2018-06-01T09:38:25.075Z,1.90
2018-06-01T09:39:25.317Z,1.90
2018-06-01T09:40:25.549Z,2.50
2018-06-01T09:41:25.786Z,2.00
2018-06-01T09:42:26.024Z,1.80
2018-06-01T09:43:26.262Z,1.50
2018-06-01T09:44:26.497Z,1.90
2018-06-01T09:45:26.732Z,1.90
2018-06-01T09:46:26.970Z,1.50
2018-06-01T09:47:27.209Z,1.60
2018-06-01T09:48:27.445Z,4.30
2018-06-01T09:49:27.681Z,1.70
2018-06-01T09:50:27.920Z,3.70
2018-06-01T09:51:28.157Z,1.60
2018-06-01T09:52:28.391Z,1.80
2018-06-01T09:53:28.627Z,3.50
2018-06-01T09:54:28.865Z,1.50
2018-06-01T09:55:29.138Z,2.50
2018-06-01T09:56:29.337Z,1.40
2018-06-01T09:57:29.573Z,2.70
2018-06-01T09:58:29.815Z,2.10
2018-06-01T09:59:30.052Z,1.40
2018-06-01T10:00:30.291Z,2.80
2018-06-01T10:01:30.530Z,1.50
2018-06-01T10:02:30.769Z,2.40
2018-06-01T10:03:31.009Z,1.40
2018-06-01T10:04:31.242Z,1.50
2018-06-01T10:05:31.478Z,2.20
2018-06-01T10:06:31.719Z,1.80
2018-06-01T10:07:31.955Z,1.60
2018-06-01T10:08:32.194Z,1.60
2018-06-01T10:09:32.430Z,2.30
2018-06-01T10:10:32.669Z,1.50
2018-06-01T10:11:32.913Z,3.30
2018-06-01T10:12:33.138Z,1.90
2018-06-01T10:13:33.379Z,3.00
2018-06-01T10:14:33.618Z,3.30
2018-06-01T10:15:33.860Z,3.30
2018-06-01T10:16:34.086Z,1.30
2018-06-01T10:17:34.324Z,1.70
2018-06-01T10:18:34.563Z,3.20
2018-06-01T10:19:34.811Z,1.50
2018-06-01T10:20:35.036Z,3.50
2018-06-01T10:21:35.272Z,1.60
2018-06-01T10:22:35.514Z,2.90
2018-06-01T10:23:35.754Z,1.80
2018-06-01T10:24:35.986Z,1.90
2018-06-01T10:25:36.223Z,1.60
2018-06-01T10:26:36.482Z,3.80
2018-06-01T10:27:36.702Z,2.80
2018-06-01T10:28:36.939Z,1.40
2018-06-01T10:29:37.177Z,3.60
2018-06-01T10:30:37.413Z,2.40
2018-06-01T10:31:37.650Z,1.80
2018-06-01T10:32:37.886Z,1.80
2018-06-01T10:33:38.123Z,2.00
2018-06-01T10:34:38.357Z,1.40
2018-06-01T10:35:38.600Z,2.30
2018-06-01T10:36:38.837Z,1.70
2018-06-01T10:37:39.078Z,1.70
2018-06-01T10:38:39.318Z,2.20
2018-06-01T10:39:39.555Z,2.40
2018-06-01T10:40:39.791Z,1.70
2018-06-01T10:41:40.028Z,1.60
2018-06-01T10:42:40.266Z,2.30
2018-06-01T10:43:40.506Z,1.70
2018-06-01T10:44:40.745Z,1.70
2018-06-01T10:45:40.985Z,2.20
2018-06-01T10:46:41.227Z,2.00
2018-06-01T10:47:41.459Z,1.60
2018-06-01T10:48:41.698Z,1.40
2018-06-01T10:49:41.937Z,1.50
2018-06-01T10:50:42.173Z,2.40
2018-06-01T10:51:42.411Z,1.60
2018-06-01T10:52:42.651Z,1.60
2018-06-01T10:53:42.887Z,2.00
2018-06-01T10:54:43.122Z,5.00
2018-06-01T10:55:43.370Z,1.60
2018-06-01T10:56:43.608Z,1.40
2018-06-01T10:57:43.845Z,1.50
2018-06-01T10:58:44.082Z,1.40
2018-06-01T10:59:44.322Z,1.70
2018-06-01T11:00:44.559Z,1.20
2018-06-01T11:01:44.799Z,1.30
2018-06-01T11:02:45.033Z,1.70
2018-06-01T11:03:45.271Z,1.90
2018-06-01T11:04:45.508Z,2.80
2018-06-01T11:05:45.754Z,1.40
2018-06-01T11:06:45.983Z,1.30
2018-06-01T11:07:46.223Z,1.70
2018-06-01T11:08:46.467Z,1.40
2018-06-01T11:09:46.701Z,2.20
2018-06-01T11:10:46.937Z,2.20
2018-06-01T11:11:47.183Z,1.90
2018-06-01T11:12:47.421Z,2.30
2018-06-01T11:13:47.711Z,1.50
2018-06-01T11:14:47.901Z,1.80
2018-06-01T11:15:48.139Z,1.70
2018-06-01T11:16:48.376Z,1.90
2018-06-01T11:17:48.641Z,2.20
2018-06-01T11:18:48.842Z,1.40
2018-06-01T11:19:49.079Z,1.70
2018-06-01T11:20:49.318Z,1.70
2018-06-01T11:21:49.555Z,1.30
2018-06-01T11:22:49.797Z,1.40
2018-06-01T11:23:50.028Z,1.50
2018-06-01T11:24:50.267Z,1.80
2018-06-01T11:25:50.504Z,1.40
2018-06-01T11:26:50.741Z,1.20
2018-06-01T11:27:50.978Z,1.70
2018-06-01T11:28:51.216Z,3.80
2018-06-01T11:29:51.453Z,1.60
2018-06-01T11:30:51.691Z,0.90
2018-06-01T11:31:51.925Z,2.00
2018-06-01T11:32:52.166Z,1.50
2018-06-01T11:33:52.406Z,1.60
2018-06-01T11:34:52.634Z,1.00
2018-06-01T11:35:52.871Z,1.60
2018-06-01T11:36:53.108Z,1.40
2018-06-01T11:37:53.346Z,1.40
2018-06-01T11:38:53.590Z,2.40
2018-06-01T11:39:53.833Z,1.30
2018-06-01T11:40:54.063Z,1.30
2018-06-01T11:41:54.297Z,1.20
2018-06-01T11:42:54.537Z,0.90
2018-06-01T11:43:54.777Z,1.40
2018-06-01T11:44:55.019Z,2.80
2018-06-01T11:45:55.262Z,2.70
2018-06-01T11:46:55.499Z,1.80
2018-06-01T11:47:55.736Z,2.50
2018-06-01T11:48:55.974Z,2.00
2018-06-01T11:49:56.211Z,1.30
2018-06-01T11:50:56.445Z,1.20
2018-06-01T11:51:56.680Z,1.40
2018-06-01T11:52:56.919Z,2.20
2018-06-01T11:53:57.157Z,1.40
2018-06-01T11:54:57.393Z,1.50
2018-06-01T11:55:57.632Z,1.20
2018-06-01T11:56:57.873Z,2.60
2018-06-01T11:57:58.113Z,2.60
2018-06-01T11:58:58.352Z,1.60
2018-06-01T11:59:58.590Z,1.30
2018-06-01T12:00:58.824Z,1.30
2018-06-01T12:01:59.059Z,1.20
2018-06-01T12:02:59.296Z,1.00
2018-06-01T12:03:59.532Z,1.40
2018-06-01T12:04:59.772Z,3.00
2018-06-01T12:06:00.005Z,1.00
2018-06-01T12:07:00.249Z,1.80
2018-06-01T12:08:00.489Z,1.40
2018-06-01T12:09:00.721Z,1.70
2018-06-01T12:10:00.962Z,1.80
2018-06-01T12:11:01.267Z,1.40
2018-06-01T12:12:01.444Z,1.80
2018-06-01T12:13:01.686Z,1.20
2018-06-01T12:14:01.919Z,1.70
2018-06-01T12:15:02.165Z,1.50
2018-06-01T12:16:02.389Z,3.60
2018-06-01T12:17:02.624Z,1.70
2018-06-01T12:18:02.858Z,1.30
2018-06-01T12:19:03.101Z,2.60
2018-06-01T12:20:03.335Z,1.40
2018-06-01T12:21:03.572Z,2.80
2018-06-01T12:22:03.811Z,2.00
2018-06-01T12:23:04.051Z,1.50
2018-06-01T12:24:04.285Z,1.90
2018-06-01T12:25:04.525Z,1.10
2018-06-01T12:26:04.765Z,1.20
2018-06-01T12:27:05.001Z,1.40
2018-06-01T12:28:05.242Z,1.20
2018-06-01T12:29:05.501Z,1.90
2018-06-01T12:30:05.715Z,3.80
2018-06-01T12:31:05.953Z,2.00
2018-06-01T12:32:06.192Z,2.60
2018-06-01T12:33:06.433Z,1.40
2018-06-01T12:34:06.668Z,1.90
2018-06-01T12:35:06.909Z,1.40
2018-06-01T12:36:07.145Z,1.40
2018-06-01T12:37:07.382Z,1.40
2018-06-01T12:38:07.626Z,3.60
2018-06-01T12:39:07.866Z,1.50
2018-06-01T12:40:08.099Z,1.90
2018-06-01T12:41:08.335Z,3.00
2018-06-01T12:42:08.574Z,3.00
2018-06-01T12:43:08.819Z,1.70
2018-06-01T12:44:09.050Z,2.20
2018-06-01T12:45:09.291Z,1.70
2018-06-01T12:46:09.526Z,2.10
2018-06-01T12:47:09.761Z,1.50
2018-06-01T12:48:10.000Z,2.30
2018-06-01T12:49:10.239Z,2.90
2018-06-01T12:50:10.480Z,1.60
2018-06-01T12:51:10.717Z,2.80
2018-06-01T12:52:10.967Z,2.40
2018-06-01T12:53:11.200Z,1.70
2018-06-01T12:54:11.436Z,1.40
2018-06-01T12:55:11.670Z,1.10
2018-06-01T12:56:11.910Z,1.40
2018-06-01T12:57:12.147Z,1.40
2018-06-01T12:58:12.384Z,1.40
2018-06-01T12:59:12.620Z,2.60
2018-06-01T13:00:12.865Z,1.70
2018-06-01T13:01:13.102Z,2.20
2018-06-01T13:02:13.336Z,2.40
2018-06-01T13:03:13.572Z,3.00
2018-06-01T13:04:13.810Z,2.30
2018-06-01T13:05:14.050Z,2.40
2018-06-01T13:06:14.289Z,2.70
2018-06-01T13:07:14.526Z,2.00
2018-06-01T13:08:14.764Z,1.50
2018-06-01T13:09:15.003Z,4.60
2018-06-01T13:10:15.239Z,1.60
2018-06-01T13:11:15.482Z,3.30
2018-06-01T13:12:15.720Z,2.30
2018-06-01T13:13:15.959Z,1.60
2018-06-01T13:14:16.193Z,1.50
2018-06-01T13:15:16.463Z,1.70
2018-06-01T13:16:16.669Z,3.80
2018-06-01T13:17:16.912Z,1.90